sensor_id;sensor_type;location;lat;lon;timestamp;P1;durP1;ratioP1;P2;durP2;ratioP2
26562;SDS011;14217;50.986;5.826;2023-07-29T00:04:09;0.20;;;0.20;;
26562;SDS011;14217;50.986;5.826;2023-07-29T00:09:11;0.77;;;0.40;;
26562;SDS011;14217;50.986;5.826;2023-07-29T00:14:14;0.90;;;0.30;;
26562;SDS011;14217;50.986;5.826;2023-07-29T00:19:16;1.40;;;0.35;;
26562;SDS011;14217;50.986;5.826;2023-07-29T00:24:18;0.50;;;0.47;;
26562;SDS011;14217;50.986;5.826;2023-07-29T00:29:20;0.28;;;0.28;;
26562;SDS011;14217;50.986;5.826;2023-07-29T00:34:22;2.42;;;0.25;;
26562;SDS011;14217;50.986;5.826;2023-07-29T00:39:24;0.22;;;0.22;;
26562;SDS011;14217;50.986;5.826;2023-07-29T00:44:26;0.20;;;0.20;;
26562;SDS011;14217;50.986;5.826;2023-07-29T00:49:28;0.10;;;0.10;;
26562;SDS011;14217;50.986;5.826;2023-07-29T00:54:30;0.28;;;0.20;;
26562;SDS011;14217;50.986;5.826;2023-07-29T00:59:32;0.25;;;0.25;;
26562;SDS011;14217;50.986;5.826;2023-07-29T01:04:36;0.20;;;0.20;;
26562;SDS011;14217;50.986;5.826;2023-07-29T01:15:26;0.35;;;0.30;;
26562;SDS011;14217;50.986;5.826;2023-07-29T01:20:33;6.05;;;0.20;;
26562;SDS011;14217;50.986;5.826;2023-07-29T01:25:37;0.20;;;0.20;;
26562;SDS011;14217;50.986;5.826;2023-07-29T01:30:39;0.10;;;0.10;;
26562;SDS011;14217;50.986;5.826;2023-07-29T01:35:49;1.23;;;0.45;;
26562;SDS011;14217;50.986;5.826;2023-07-29T01:40:54;0.20;;;0.20;;
26562;SDS011;14217;50.986;5.826;2023-07-29T01:45:57;0.47;;;0.47;;
26562;SDS011;14217;50.986;5.826;2023-07-29T01:51:00;0.50;;;0.13;;
26562;SDS011;14217;50.986;5.826;2023-07-29T01:56:02;0.85;;;0.30;;
26562;SDS011;14217;50.986;5.826;2023-07-29T02:01:04;0.35;;;0.10;;
26562;SDS011;14217;50.986;5.826;2023-07-29T02:06:07;0.75;;;0.20;;
26562;SDS011;14217;50.986;5.826;2023-07-29T02:11:09;0.20;;;0.20;;
26562;SDS011;14217;50.986;5.826;2023-07-29T02:16:11;0.60;;;0.30;;
26562;SDS011;14217;50.986;5.826;2023-07-29T02:21:13;0.15;;;0.15;;
26562;SDS011;14217;50.986;5.826;2023-07-29T02:26:15;1.00;;;0.25;;
26562;SDS011;14217;50.986;5.826;2023-07-29T02:31:22;0.65;;;0.65;;
26562;SDS011;14217;50.986;5.826;2023-07-29T02:36:25;0.47;;;0.10;;
26562;SDS011;14217;50.986;5.826;2023-07-29T02:41:28;1.90;;;0.28;;
26562;SDS011;14217;50.986;5.826;2023-07-29T02:46:29;0.30;;;0.30;;
26562;SDS011;14217;50.986;5.826;2023-07-29T02:51:31;0.90;;;0.30;;
26562;SDS011;14217;50.986;5.826;2023-07-29T02:56:34;0.60;;;0.30;;
26562;SDS011;14217;50.986;5.826;2023-07-29T03:01:36;0.20;;;0.20;;
26562;SDS011;14217;50.986;5.826;2023-07-29T03:06:38;0.30;;;0.25;;
26562;SDS011;14217;50.986;5.826;2023-07-29T03:11:40;0.60;;;0.22;;
26562;SDS011;14217;50.986;5.826;2023-07-29T03:16:43;1.55;;;0.20;;
26562;SDS011;14217;50.986;5.826;2023-07-29T03:21:45;0.38;;;0.30;;
26562;SDS011;14217;50.986;5.826;2023-07-29T03:26:47;0.13;;;0.13;;
26562;SDS011;14217;50.986;5.826;2023-07-29T03:31:49;0.20;;;0.10;;
26562;SDS011;14217;50.986;5.826;2023-07-29T03:36:51;1.58;;;0.25;;
26562;SDS011;14217;50.986;5.826;2023-07-29T03:41:53;0.60;;;0.30;;
26562;SDS011;14217;50.986;5.826;2023-07-29T03:46:55;0.10;;;0.10;;
26562;SDS011;14217;50.986;5.826;2023-07-29T03:51:57;0.22;;;0.10;;
26562;SDS011;14217;50.986;5.826;2023-07-29T03:56:59;0.55;;;0.20;;
26562;SDS011;14217;50.986;5.826;2023-07-29T04:02:01;0.50;;;0.20;;
26562;SDS011;14217;50.986;5.826;2023-07-29T04:07:03;0.30;;;0.30;;
26562;SDS011;14217;50.986;5.826;2023-07-29T04:12:07;7.22;;;0.45;;
26562;SDS011;14217;50.986;5.826;2023-07-29T04:17:09;0.55;;;0.22;;
26562;SDS011;14217;50.986;5.826;2023-07-29T04:22:11;0.10;;;0.10;;
26562;SDS011;14217;50.986;5.826;2023-07-29T04:27:13;0.80;;;0.20;;
26562;SDS011;14217;50.986;5.826;2023-07-29T04:32:15;0.13;;;0.13;;
26562;SDS011;14217;50.986;5.826;2023-07-29T04:37:17;0.13;;;0.13;;
26562;SDS011;14217;50.986;5.826;2023-07-29T04:42:19;0.28;;;0.20;;
26562;SDS011;14217;50.986;5.826;2023-07-29T04:47:21;0.22;;;0.20;;
26562;SDS011;14217;50.986;5.826;2023-07-29T04:52:25;2.85;;;0.30;;
26562;SDS011;14217;50.986;5.826;2023-07-29T04:57:27;5.75;;;0.50;;
26562;SDS011;14217;50.986;5.826;2023-07-29T05:02:29;1.63;;;0.60;;
26562;SDS011;14217;50.986;5.826;2023-07-29T05:07:31;3.90;;;0.30;;
26562;SDS011;14217;50.986;5.826;2023-07-29T05:12:33;0.88;;;0.50;;
26562;SDS011;14217;50.986;5.826;2023-07-29T05:17:35;0.55;;;0.43;;
26562;SDS011;14217;50.986;5.826;2023-07-29T05:22:37;3.20;;;0.38;;
26562;SDS011;14217;50.986;5.826;2023-07-29T05:27:39;0.82;;;0.35;;
26562;SDS011;14217;50.986;5.826;2023-07-29T05:32:41;0.60;;;0.40;;
26562;SDS011;14217;50.986;5.826;2023-07-29T05:37:44;1.27;;;0.40;;
26562;SDS011;14217;50.986;5.826;2023-07-29T05:42:46;0.28;;;0.28;;
26562;SDS011;14217;50.986;5.826;2023-07-29T05:47:49;0.40;;;0.35;;
26562;SDS011;14217;50.986;5.826;2023-07-29T05:52:51;0.80;;;0.57;;
26562;SDS011;14217;50.986;5.826;2023-07-29T05:57:53;11.38;;;0.68;;
26562;SDS011;14217;50.986;5.826;2023-07-29T06:02:56;0.77;;;0.40;;
26562;SDS011;14217;50.986;5.826;2023-07-29T06:07:58;3.00;;;0.65;;
26562;SDS011;14217;50.986;5.826;2023-07-29T06:13:00;4.45;;;0.50;;
26562;SDS011;14217;50.986;5.826;2023-07-29T06:18:02;10.30;;;0.55;;
26562;SDS011;14217;50.986;5.826;2023-07-29T06:23:05;4.05;;;0.60;;
26562;SDS011;14217;50.986;5.826;2023-07-29T06:28:07;16.67;;;0.93;;
26562;SDS011;14217;50.986;5.826;2023-07-29T06:33:10;4.03;;;0.60;;
26562;SDS011;14217;50.986;5.826;2023-07-29T06:38:12;3.28;;;0.65;;
26562;SDS011;14217;50.986;5.826;2023-07-29T06:43:14;2.33;;;0.47;;
26562;SDS011;14217;50.986;5.826;2023-07-29T06:48:16;2.08;;;0.60;;
26562;SDS011;14217;50.986;5.826;2023-07-29T06:53:18;4.20;;;0.63;;
26562;SDS011;14217;50.986;5.826;2023-07-29T06:58:21;1.95;;;0.65;;
26562;SDS011;14217;50.986;5.826;2023-07-29T07:03:23;1.63;;;0.60;;
26562;SDS011;14217;50.986;5.826;2023-07-29T07:08:25;1.25;;;0.57;;
26562;SDS011;14217;50.986;5.826;2023-07-29T07:13:27;1.58;;;0.77;;
26562;SDS011;14217;50.986;5.826;2023-07-29T07:18:29;5.03;;;1.05;;
26562;SDS011;14217;50.986;5.826;2023-07-29T07:23:31;8.88;;;0.32;;
26562;SDS011;14217;50.986;5.826;2023-07-29T07:28:33;0.75;;;0.30;;
26562;SDS011;14217;50.986;5.826;2023-07-29T07:33:35;2.42;;;0.57;;
26562;SDS011;14217;50.986;5.826;2023-07-29T07:38:37;0.30;;;0.30;;
26562;SDS011;14217;50.986;5.826;2023-07-29T07:43:40;2.40;;;0.40;;
26562;SDS011;14217;50.986;5.826;2023-07-29T07:48:42;9.55;;;0.93;;
26562;SDS011;14217;50.986;5.826;2023-07-29T07:53:44;8.43;;;0.70;;
26562;SDS011;14217;50.986;5.826;2023-07-29T07:58:46;0.73;;;0.50;;
26562;SDS011;14217;50.986;5.826;2023-07-29T08:03:48;1.70;;;0.40;;
26562;SDS011;14217;50.986;5.826;2023-07-29T08:08:51;0.40;;;0.30;;
26562;SDS011;14217;50.986;5.826;2023-07-29T08:13:53;3.92;;;0.73;;
26562;SDS011;14217;50.986;5.826;2023-07-29T08:18:55;4.28;;;0.63;;
26562;SDS011;14217;50.986;5.826;2023-07-29T08:23:57;1.75;;;1.00;;
26562;SDS011;14217;50.986;5.826;2023-07-29T08:28:59;8.93;;;0.90;;
26562;SDS011;14217;50.986;5.826;2023-07-29T08:34:01;10.75;;;0.60;;
26562;SDS011;14217;50.986;5.826;2023-07-29T08:39:03;7.93;;;0.50;;
26562;SDS011;14217;50.986;5.826;2023-07-29T08:49:19;3.53;;;0.88;;
26562;SDS011;14217;50.986;5.826;2023-07-29T08:54:21;3.50;;;0.50;;
26562;SDS011;14217;50.986;5.826;2023-07-29T08:59:23;0.88;;;0.55;;
26562;SDS011;14217;50.986;5.826;2023-07-29T09:04:27;3.80;;;0.50;;
26562;SDS011;14217;50.986;5.826;2023-07-29T09:09:30;0.60;;;0.60;;
26562;SDS011;14217;50.986;5.826;2023-07-29T09:14:32;1.75;;;0.40;;
26562;SDS011;14217;50.986;5.826;2023-07-29T09:19:34;0.85;;;0.70;;
26562;SDS011;14217;50.986;5.826;2023-07-29T09:24:39;2.33;;;0.60;;
26562;SDS011;14217;50.986;5.826;2023-07-29T09:29:41;2.17;;;0.40;;
26562;SDS011;14217;50.986;5.826;2023-07-29T09:34:43;1.38;;;0.55;;
26562;SDS011;14217;50.986;5.826;2023-07-29T09:39:46;0.68;;;0.68;;
26562;SDS011;14217;50.986;5.826;2023-07-29T09:44:49;1.35;;;0.57;;
26562;SDS011;14217;50.986;5.826;2023-07-29T09:49:52;0.88;;;0.68;;
26562;SDS011;14217;50.986;5.826;2023-07-29T09:54:55;1.02;;;0.60;;
26562;SDS011;14217;50.986;5.826;2023-07-29T09:59:57;1.60;;;0.98;;
26562;SDS011;14217;50.986;5.826;2023-07-29T10:04:59;2.00;;;0.73;;
26562;SDS011;14217;50.986;5.826;2023-07-29T10:10:03;0.40;;;0.30;;
26562;SDS011;14217;50.986;5.826;2023-07-29T10:15:06;4.03;;;0.50;;
26562;SDS011;14217;50.986;5.826;2023-07-29T10:20:09;5.07;;;0.52;;
26562;SDS011;14217;50.986;5.826;2023-07-29T10:25:16;0.85;;;0.70;;
26562;SDS011;14217;50.986;5.826;2023-07-29T10:30:19;0.95;;;0.60;;
26562;SDS011;14217;50.986;5.826;2023-07-29T10:35:21;2.28;;;0.70;;
26562;SDS011;14217;50.986;5.826;2023-07-29T10:40:23;0.52;;;0.52;;
26562;SDS011;14217;50.986;5.826;2023-07-29T10:45:25;0.95;;;0.60;;
26562;SDS011;14217;50.986;5.826;2023-07-29T10:50:27;0.82;;;0.75;;
26562;SDS011;14217;50.986;5.826;2023-07-29T10:55:32;0.98;;;0.80;;
26562;SDS011;14217;50.986;5.826;2023-07-29T11:00:35;1.45;;;0.90;;
26562;SDS011;14217;50.986;5.826;2023-07-29T11:11:11;2.45;;;0.80;;
26562;SDS011;14217;50.986;5.826;2023-07-29T11:16:14;0.73;;;0.68;;
26562;SDS011;14217;50.986;5.826;2023-07-29T11:21:18;0.60;;;0.45;;
26562;SDS011;14217;50.986;5.826;2023-07-29T11:26:20;0.50;;;0.50;;
26562;SDS011;14217;50.986;5.826;2023-07-29T11:31:22;0.60;;;0.50;;
26562;SDS011;14217;50.986;5.826;2023-07-29T11:36:24;1.60;;;0.60;;
26562;SDS011;14217;50.986;5.826;2023-07-29T11:41:26;1.55;;;0.85;;
26562;SDS011;14217;50.986;5.826;2023-07-29T11:46:29;0.88;;;0.45;;
26562;SDS011;14217;50.986;5.826;2023-07-29T11:51:31;0.40;;;0.40;;
26562;SDS011;14217;50.986;5.826;2023-07-29T11:56:34;0.45;;;0.45;;
26562;SDS011;14217;50.986;5.826;2023-07-29T12:01:37;0.73;;;0.60;;
26562;SDS011;14217;50.986;5.826;2023-07-29T12:06:40;0.57;;;0.57;;
26562;SDS011;14217;50.986;5.826;2023-07-29T12:11:43;1.45;;;0.70;;
26562;SDS011;14217;50.986;5.826;2023-07-29T12:16:47;0.68;;;0.50;;
26562;SDS011;14217;50.986;5.826;2023-07-29T12:21:50;0.40;;;0.35;;
26562;SDS011;14217;50.986;5.826;2023-07-29T12:26:52;0.73;;;0.50;;
26562;SDS011;14217;50.986;5.826;2023-07-29T12:31:58;0.80;;;0.50;;
26562;SDS011;14217;50.986;5.826;2023-07-29T12:37:05;0.40;;;0.40;;
26562;SDS011;14217;50.986;5.826;2023-07-29T12:42:08;2.65;;;0.60;;
26562;SDS011;14217;50.986;5.826;2023-07-29T12:47:10;2.03;;;0.40;;
26562;SDS011;14217;50.986;5.826;2023-07-29T12:52:13;0.77;;;0.50;;
26562;SDS011;14217;50.986;5.826;2023-07-29T12:57:15;1.15;;;0.50;;
26562;SDS011;14217;50.986;5.826;2023-07-29T13:02:17;0.30;;;0.30;;
26562;SDS011;14217;50.986;5.826;2023-07-29T13:07:19;0.55;;;0.52;;
26562;SDS011;14217;50.986;5.826;2023-07-29T13:12:21;3.08;;;0.55;;
26562;SDS011;14217;50.986;5.826;2023-07-29T13:17:24;1.70;;;0.30;;
26562;SDS011;14217;50.986;5.826;2023-07-29T13:22:26;0.57;;;0.30;;
26562;SDS011;14217;50.986;5.826;2023-07-29T13:27:29;0.88;;;0.52;;
26562;SDS011;14217;50.986;5.826;2023-07-29T13:32:31;0.40;;;0.30;;
26562;SDS011;14217;50.986;5.826;2023-07-29T13:37:33;0.65;;;0.47;;
26562;SDS011;14217;50.986;5.826;2023-07-29T13:42:35;1.27;;;0.68;;
26562;SDS011;14217;50.986;5.826;2023-07-29T13:47:37;0.55;;;0.50;;
26562;SDS011;14217;50.986;5.826;2023-07-29T13:52:39;4.50;;;0.55;;
26562;SDS011;14217;50.986;5.826;2023-07-29T13:57:41;0.73;;;0.70;;
26562;SDS011;14217;50.986;5.826;2023-07-29T14:02:44;0.85;;;0.65;;
26562;SDS011;14217;50.986;5.826;2023-07-29T14:07:46;1.05;;;0.50;;
26562;SDS011;14217;50.986;5.826;2023-07-29T14:12:48;3.63;;;0.57;;
26562;SDS011;14217;50.986;5.826;2023-07-29T14:17:51;1.73;;;0.45;;
26562;SDS011;14217;50.986;5.826;2023-07-29T14:22:53;1.15;;;0.60;;
26562;SDS011;14217;50.986;5.826;2023-07-29T14:27:55;1.05;;;0.80;;
26562;SDS011;14217;50.986;5.826;2023-07-29T14:32:57;1.58;;;0.73;;
26562;SDS011;14217;50.986;5.826;2023-07-29T14:37:59;1.85;;;0.50;;
26562;SDS011;14217;50.986;5.826;2023-07-29T14:43:02;0.60;;;0.60;;
26562;SDS011;14217;50.986;5.826;2023-07-29T14:48:04;1.38;;;0.60;;
26562;SDS011;14217;50.986;5.826;2023-07-29T14:53:09;0.95;;;0.50;;
26562;SDS011;14217;50.986;5.826;2023-07-29T14:58:12;0.70;;;0.40;;
26562;SDS011;14217;50.986;5.826;2023-07-29T15:03:14;2.55;;;0.70;;
26562;SDS011;14217;50.986;5.826;2023-07-29T15:08:16;1.73;;;0.63;;
26562;SDS011;14217;50.986;5.826;2023-07-29T15:13:19;0.82;;;0.50;;
26562;SDS011;14217;50.986;5.826;2023-07-29T15:18:21;2.22;;;0.88;;
26562;SDS011;14217;50.986;5.826;2023-07-29T15:23:23;1.52;;;0.80;;
26562;SDS011;14217;50.986;5.826;2023-07-29T15:28:25;2.70;;;0.80;;
26562;SDS011;14217;50.986;5.826;2023-07-29T15:33:27;1.25;;;0.93;;
26562;SDS011;14217;50.986;5.826;2023-07-29T15:38:29;1.90;;;0.93;;
26562;SDS011;14217;50.986;5.826;2023-07-29T15:43:31;2.92;;;0.88;;
26562;SDS011;14217;50.986;5.826;2023-07-29T15:48:34;3.67;;;1.08;;
26562;SDS011;14217;50.986;5.826;2023-07-29T15:53:36;3.45;;;1.30;;
26562;SDS011;14217;50.986;5.826;2023-07-29T15:58:38;3.30;;;0.88;;
26562;SDS011;14217;50.986;5.826;2023-07-29T16:03:40;1.00;;;0.73;;
26562;SDS011;14217;50.986;5.826;2023-07-29T16:08:42;2.05;;;1.30;;
26562;SDS011;14217;50.986;5.826;2023-07-29T16:13:44;1.23;;;0.70;;
26562;SDS011;14217;50.986;5.826;2023-07-29T16:18:46;1.70;;;1.08;;
26562;SDS011;14217;50.986;5.826;2023-07-29T16:23:48;1.55;;;1.00;;
26562;SDS011;14217;50.986;5.826;2023-07-29T16:28:54;0.63;;;0.55;;
26562;SDS011;14217;50.986;5.826;2023-07-29T16:33:55;1.92;;;1.15;;
26562;SDS011;14217;50.986;5.826;2023-07-29T16:38:58;1.20;;;0.65;;
26562;SDS011;14217;50.986;5.826;2023-07-29T16:44:00;2.35;;;0.68;;
26562;SDS011;14217;50.986;5.826;2023-07-29T16:49:02;1.15;;;0.50;;
26562;SDS011;14217;50.986;5.826;2023-07-29T16:54:06;11.32;;;1.30;;
26562;SDS011;14217;50.986;5.826;2023-07-29T16:59:08;6.38;;;1.05;;
26562;SDS011;14217;50.986;5.826;2023-07-29T17:04:10;1.75;;;1.27;;
26562;SDS011;14217;50.986;5.826;2023-07-29T17:09:12;1.17;;;0.80;;
26562;SDS011;14217;50.986;5.826;2023-07-29T17:14:14;1.90;;;0.50;;
26562;SDS011;14217;50.986;5.826;2023-07-29T17:19:17;1.08;;;0.50;;
26562;SDS011;14217;50.986;5.826;2023-07-29T17:24:19;5.63;;;1.15;;
26562;SDS011;14217;50.986;5.826;2023-07-29T17:29:21;0.70;;;0.70;;
26562;SDS011;14217;50.986;5.826;2023-07-29T17:34:24;0.95;;;0.68;;
26562;SDS011;14217;50.986;5.826;2023-07-29T17:39:26;1.90;;;0.70;;
26562;SDS011;14217;50.986;5.826;2023-07-29T17:44:28;1.92;;;0.57;;
26562;SDS011;14217;50.986;5.826;2023-07-29T17:49:30;0.95;;;0.85;;
26562;SDS011;14217;50.986;5.826;2023-07-29T17:54:32;2.35;;;0.77;;
26562;SDS011;14217;50.986;5.826;2023-07-29T17:59:35;5.25;;;0.90;;
26562;SDS011;14217;50.986;5.826;2023-07-29T18:04:36;1.92;;;1.05;;
26562;SDS011;14217;50.986;5.826;2023-07-29T18:09:38;1.42;;;0.40;;
26562;SDS011;14217;50.986;5.826;2023-07-29T18:14:40;1.85;;;0.68;;
26562;SDS011;14217;50.986;5.826;2023-07-29T18:19:43;0.90;;;0.70;;
26562;SDS011;14217;50.986;5.826;2023-07-29T18:24:46;3.83;;;0.63;;
26562;SDS011;14217;50.986;5.826;2023-07-29T18:29:47;0.38;;;0.38;;
26562;SDS011;14217;50.986;5.826;2023-07-29T18:34:49;0.98;;;0.50;;
26562;SDS011;14217;50.986;5.826;2023-07-29T18:39:51;1.33;;;0.50;;
26562;SDS011;14217;50.986;5.826;2023-07-29T18:44:53;0.68;;;0.52;;
26562;SDS011;14217;50.986;5.826;2023-07-29T18:49:55;0.88;;;0.52;;
26562;SDS011;14217;50.986;5.826;2023-07-29T18:54:58;1.05;;;0.52;;
26562;SDS011;14217;50.986;5.826;2023-07-29T19:00:01;1.33;;;0.28;;
26562;SDS011;14217;50.986;5.826;2023-07-29T19:05:05;0.35;;;0.35;;
26562;SDS011;14217;50.986;5.826;2023-07-29T19:10:09;0.75;;;0.40;;
26562;SDS011;14217;50.986;5.826;2023-07-29T19:15:11;2.15;;;0.60;;
26562;SDS011;14217;50.986;5.826;2023-07-29T19:20:14;0.95;;;0.43;;
26562;SDS011;14217;50.986;5.826;2023-07-29T19:25:16;0.45;;;0.45;;
26562;SDS011;14217;50.986;5.826;2023-07-29T19:30:18;0.98;;;0.55;;
26562;SDS011;14217;50.986;5.826;2023-07-29T19:35:20;0.40;;;0.40;;
26562;SDS011;14217;50.986;5.826;2023-07-29T19:40:22;0.40;;;0.40;;
26562;SDS011;14217;50.986;5.826;2023-07-29T19:45:24;0.70;;;0.40;;
26562;SDS011;14217;50.986;5.826;2023-07-29T19:50:27;0.47;;;0.43;;
26562;SDS011;14217;50.986;5.826;2023-07-29T19:55:30;0.32;;;0.32;;
26562;SDS011;14217;50.986;5.826;2023-07-29T20:00:32;0.50;;;0.50;;
26562;SDS011;14217;50.986;5.826;2023-07-29T20:05:34;0.93;;;0.40;;
26562;SDS011;14217;50.986;5.826;2023-07-29T20:10:36;1.13;;;0.40;;
26562;SDS011;14217;50.986;5.826;2023-07-29T20:15:38;0.45;;;0.45;;
26562;SDS011;14217;50.986;5.826;2023-07-29T20:20:41;0.30;;;0.30;;
26562;SDS011;14217;50.986;5.826;2023-07-29T20:25:43;0.40;;;0.40;;
26562;SDS011;14217;50.986;5.826;2023-07-29T20:30:46;0.47;;;0.20;;
26562;SDS011;14217;50.986;5.826;2023-07-29T20:35:55;0.30;;;0.30;;
26562;SDS011;14217;50.986;5.826;2023-07-29T20:40:59;0.32;;;0.32;;
26562;SDS011;14217;50.986;5.826;2023-07-29T20:46:01;1.92;;;0.30;;
26562;SDS011;14217;50.986;5.826;2023-07-29T20:51:03;0.38;;;0.38;;
26562;SDS011;14217;50.986;5.826;2023-07-29T20:56:05;0.32;;;0.32;;
26562;SDS011;14217;50.986;5.826;2023-07-29T21:01:07;0.52;;;0.30;;
26562;SDS011;14217;50.986;5.826;2023-07-29T21:06:09;0.63;;;0.32;;
26562;SDS011;14217;50.986;5.826;2023-07-29T21:11:12;0.43;;;0.22;;
26562;SDS011;14217;50.986;5.826;2023-07-29T21:16:14;2.00;;;0.80;;
26562;SDS011;14217;50.986;5.826;2023-07-29T21:21:16;5.82;;;1.10;;
26562;SDS011;14217;50.986;5.826;2023-07-29T21:26:18;3.45;;;1.10;;
26562;SDS011;14217;50.986;5.826;2023-07-29T21:31:20;4.65;;;1.10;;
26562;SDS011;14217;50.986;5.826;2023-07-29T21:36:23;2.38;;;0.70;;
26562;SDS011;14217;50.986;5.826;2023-07-29T21:41:25;4.68;;;1.25;;
26562;SDS011;14217;50.986;5.826;2023-07-29T21:46:27;1.83;;;0.75;;
26562;SDS011;14217;50.986;5.826;2023-07-29T21:51:29;1.75;;;1.10;;
26562;SDS011;14217;50.986;5.826;2023-07-29T21:56:31;1.05;;;0.73;;
26562;SDS011;14217;50.986;5.826;2023-07-29T22:01:33;1.65;;;0.85;;
26562;SDS011;14217;50.986;5.826;2023-07-29T22:06:36;0.85;;;0.68;;
26562;SDS011;14217;50.986;5.826;2023-07-29T22:11:38;1.88;;;0.90;;
26562;SDS011;14217;50.986;5.826;2023-07-29T22:16:40;1.20;;;0.75;;
26562;SDS011;14217;50.986;5.826;2023-07-29T22:21:42;1.55;;;0.80;;
26562;SDS011;14217;50.986;5.826;2023-07-29T22:26:46;1.52;;;0.98;;
26562;SDS011;14217;50.986;5.826;2023-07-29T22:31:49;1.50;;;0.65;;
26562;SDS011;14217;50.986;5.826;2023-07-29T22:36:51;0.95;;;0.60;;
26562;SDS011;14217;50.986;5.826;2023-07-29T22:41:55;2.05;;;0.70;;
26562;SDS011;14217;50.986;5.826;2023-07-29T22:46:57;0.40;;;0.40;;
26562;SDS011;14217;50.986;5.826;2023-07-29T22:51:59;1.05;;;0.50;;
26562;SDS011;14217;50.986;5.826;2023-07-29T22:57:01;0.70;;;0.70;;
26562;SDS011;14217;50.986;5.826;2023-07-29T23:02:03;1.00;;;0.60;;
26562;SDS011;14217;50.986;5.826;2023-07-29T23:07:05;0.55;;;0.50;;
26562;SDS011;14217;50.986;5.826;2023-07-29T23:12:07;1.05;;;0.50;;
26562;SDS011;14217;50.986;5.826;2023-07-29T23:17:10;1.63;;;0.73;;
26562;SDS011;14217;50.986;5.826;2023-07-29T23:22:12;1.15;;;0.40;;
26562;SDS011;14217;50.986;5.826;2023-07-29T23:27:14;0.55;;;0.55;;
26562;SDS011;14217;50.986;5.826;2023-07-29T23:32:16;1.20;;;0.43;;
26562;SDS011;14217;50.986;5.826;2023-07-29T23:37:18;0.50;;;0.43;;
26562;SDS011;14217;50.986;5.826;2023-07-29T23:42:20;1.88;;;0.50;;
26562;SDS011;14217;50.986;5.826;2023-07-29T23:47:22;0.50;;;0.50;;
26562;SDS011;14217;50.986;5.826;2023-07-29T23:52:24;1.08;;;0.60;;
26562;SDS011;14217;50.986;5.826;2023-07-29T23:57:27;0.73;;;0.50;;
